sensor_id;sensor_type;location;lat;lon;timestamp;temperature;humidity
7216;DHT22;3649;48.798;9.798;2023-12-20T00:02:11;9.30;99.90
7216;DHT22;3649;48.798;9.798;2023-12-20T00:04:38;9.40;99.90
7216;DHT22;3649;48.798;9.798;2023-12-20T00:07:04;9.30;99.90
7216;DHT22;3649;48.798;9.798;2023-12-20T00:09:31;9.40;99.90
7216;DHT22;3649;48.798;9.798;2023-12-20T00:11:59;9.40;99.90
7216;DHT22;3649;48.798;9.798;2023-12-20T00:14:26;9.40;99.90
7216;DHT22;3649;48.798;9.798;2023-12-20T00:16:53;9.40;99.90
7216;DHT22;3649;48.798;9.798;2023-12-20T00:19:20;9.30;99.90
7216;DHT22;3649;48.798;9.798;2023-12-20T00:21:47;9.40;99.90
7216;DHT22;3649;48.798;9.798;2023-12-20T00:24:14;9.40;99.90
7216;DHT22;3649;48.798;9.798;2023-12-20T00:26:40;9.40;99.90
7216;DHT22;3649;48.798;9.798;2023-12-20T00:29:07;9.40;99.90
7216;DHT22;3649;48.798;9.798;2023-12-20T00:31:34;9.40;99.90
7216;DHT22;3649;48.798;9.798;2023-12-20T00:34:01;9.40;99.90
7216;DHT22;3649;48.798;9.798;2023-12-20T00:36:28;9.40;99.90
7216;DHT22;3649;48.798;9.798;2023-12-20T00:38:54;9.40;99.90
7216;DHT22;3649;48.798;9.798;2023-12-20T00:41:21;9.30;99.90
7216;DHT22;3649;48.798;9.798;2023-12-20T00:43:48;9.40;99.90
7216;DHT22;3649;48.798;9.798;2023-12-20T00:46:15;9.40;99.90
7216;DHT22;3649;48.798;9.798;2023-12-20T00:48:42;9.50;99.90
7216;DHT22;3649;48.798;9.798;2023-12-20T00:51:09;9.50;99.90
7216;DHT22;3649;48.798;9.798;2023-12-20T00:53:35;9.40;99.90
7216;DHT22;3649;48.798;9.798;2023-12-20T00:56:03;9.50;99.90
7216;DHT22;3649;48.798;9.798;2023-12-20T00:58:29;9.40;99.90
7216;DHT22;3649;48.798;9.798;2023-12-20T01:00:56;9.40;99.90
7216;DHT22;3649;48.798;9.798;2023-12-20T01:03:24;9.40;99.90
7216;DHT22;3649;48.798;9.798;2023-12-20T01:05:51;9.30;99.90
7216;DHT22;3649;48.798;9.798;2023-12-20T01:08:18;9.30;99.90
7216;DHT22;3649;48.798;9.798;2023-12-20T01:10:47;9.40;99.90
7216;DHT22;3649;48.798;9.798;2023-12-20T01:13:14;9.30;99.90
7216;DHT22;3649;48.798;9.798;2023-12-20T01:15:41;9.40;99.90
7216;DHT22;3649;48.798;9.798;2023-12-20T01:18:08;9.30;99.90
7216;DHT22;3649;48.798;9.798;2023-12-20T01:20:35;9.30;99.90
7216;DHT22;3649;48.798;9.798;2023-12-20T01:23:03;9.40;99.90
7216;DHT22;3649;48.798;9.798;2023-12-20T01:25:29;9.30;99.90
7216;DHT22;3649;48.798;9.798;2023-12-20T01:27:56;9.30;99.90
7216;DHT22;3649;48.798;9.798;2023-12-20T01:30:23;9.20;99.90
7216;DHT22;3649;48.798;9.798;2023-12-20T01:32:51;9.30;99.90
7216;DHT22;3649;48.798;9.798;2023-12-20T01:35:18;9.30;99.90
7216;DHT22;3649;48.798;9.798;2023-12-20T01:37:45;9.20;99.90
7216;DHT22;3649;48.798;9.798;2023-12-20T01:40:12;9.20;99.90
7216;DHT22;3649;48.798;9.798;2023-12-20T01:42:39;9.20;99.90
7216;DHT22;3649;48.798;9.798;2023-12-20T01:45:06;9.20;99.90
7216;DHT22;3649;48.798;9.798;2023-12-20T01:47:33;9.20;99.90
7216;DHT22;3649;48.798;9.798;2023-12-20T01:50:01;9.30;99.90
7216;DHT22;3649;48.798;9.798;2023-12-20T01:52:31;9.20;99.90
7216;DHT22;3649;48.798;9.798;2023-12-20T01:55:00;9.20;99.90
7216;DHT22;3649;48.798;9.798;2023-12-20T01:57:30;9.10;99.90
7216;DHT22;3649;48.798;9.798;2023-12-20T01:59:58;9.00;99.90
7216;DHT22;3649;48.798;9.798;2023-12-20T02:02:26;9.00;99.90
7216;DHT22;3649;48.798;9.798;2023-12-20T02:04:54;8.90;99.90
7216;DHT22;3649;48.798;9.798;2023-12-20T02:07:21;8.90;99.90
7216;DHT22;3649;48.798;9.798;2023-12-20T02:09:49;8.90;99.90
7216;DHT22;3649;48.798;9.798;2023-12-20T02:12:16;8.90;99.90
7216;DHT22;3649;48.798;9.798;2023-12-20T02:14:43;8.80;99.90
7216;DHT22;3649;48.798;9.798;2023-12-20T02:17:10;8.90;99.90
7216;DHT22;3649;48.798;9.798;2023-12-20T02:19:37;8.80;99.90
7216;DHT22;3649;48.798;9.798;2023-12-20T02:22:11;8.80;99.90
7216;DHT22;3649;48.798;9.798;2023-12-20T02:24:38;8.80;99.90
7216;DHT22;3649;48.798;9.798;2023-12-20T02:27:06;8.70;99.90
7216;DHT22;3649;48.798;9.798;2023-12-20T02:29:34;10.10;99.90
7216;DHT22;3649;48.798;9.798;2023-12-20T02:32:01;8.80;99.90
7216;DHT22;3649;48.798;9.798;2023-12-20T02:34:28;8.80;99.90
7216;DHT22;3649;48.798;9.798;2023-12-20T02:36:55;8.90;99.90
7216;DHT22;3649;48.798;9.798;2023-12-20T02:39:22;8.90;99.90
7216;DHT22;3649;48.798;9.798;2023-12-20T02:41:49;8.90;99.90
7216;DHT22;3649;48.798;9.798;2023-12-20T02:44:16;8.90;99.90
7216;DHT22;3649;48.798;9.798;2023-12-20T02:46:43;8.90;99.90
7216;DHT22;3649;48.798;9.798;2023-12-20T02:49:10;8.90;99.90
7216;DHT22;3649;48.798;9.798;2023-12-20T02:51:37;8.90;99.90
7216;DHT22;3649;48.798;9.798;2023-12-20T02:54:07;8.90;99.90
7216;DHT22;3649;48.798;9.798;2023-12-20T02:56:33;8.90;99.90
7216;DHT22;3649;48.798;9.798;2023-12-20T02:59:01;8.80;99.90
7216;DHT22;3649;48.798;9.798;2023-12-20T03:01:29;8.80;99.90
7216;DHT22;3649;48.798;9.798;2023-12-20T03:03:56;8.90;99.90
7216;DHT22;3649;48.798;9.798;2023-12-20T03:06:23;8.90;99.90
7216;DHT22;3649;48.798;9.798;2023-12-20T03:08:51;9.00;99.90
7216;DHT22;3649;48.798;9.798;2023-12-20T03:11:18;9.00;99.90
7216;DHT22;3649;48.798;9.798;2023-12-20T03:13:45;8.90;99.90
7216;DHT22;3649;48.798;9.798;2023-12-20T03:16:12;8.90;99.90
7216;DHT22;3649;48.798;9.798;2023-12-20T03:18:40;8.90;99.90
7216;DHT22;3649;48.798;9.798;2023-12-20T03:21:07;8.90;99.90
7216;DHT22;3649;48.798;9.798;2023-12-20T03:23:33;9.00;99.90
7216;DHT22;3649;48.798;9.798;2023-12-20T03:26:00;9.00;99.90
7216;DHT22;3649;48.798;9.798;2023-12-20T03:28:27;9.00;99.90
7216;DHT22;3649;48.798;9.798;2023-12-20T03:30:54;9.00;99.90
7216;DHT22;3649;48.798;9.798;2023-12-20T03:33:21;8.90;99.90
7216;DHT22;3649;48.798;9.798;2023-12-20T03:35:48;8.90;99.90
7216;DHT22;3649;48.798;9.798;2023-12-20T03:38:15;8.90;99.90
7216;DHT22;3649;48.798;9.798;2023-12-20T03:40:41;8.90;99.90
7216;DHT22;3649;48.798;9.798;2023-12-20T03:43:08;8.80;99.90
7216;DHT22;3649;48.798;9.798;2023-12-20T03:45:35;8.80;99.90
7216;DHT22;3649;48.798;9.798;2023-12-20T03:48:02;8.80;99.90
7216;DHT22;3649;48.798;9.798;2023-12-20T03:50:29;8.90;99.90
7216;DHT22;3649;48.798;9.798;2023-12-20T03:52:56;8.80;99.90
7216;DHT22;3649;48.798;9.798;2023-12-20T03:55:23;8.90;99.90
7216;DHT22;3649;48.798;9.798;2023-12-20T03:57:50;8.80;99.90
7216;DHT22;3649;48.798;9.798;2023-12-20T04:00:17;8.80;99.90
7216;DHT22;3649;48.798;9.798;2023-12-20T04:02:44;8.90;99.90
7216;DHT22;3649;48.798;9.798;2023-12-20T04:05:11;8.90;99.90
7216;DHT22;3649;48.798;9.798;2023-12-20T04:07:37;8.90;99.90
7216;DHT22;3649;48.798;9.798;2023-12-20T04:10:05;8.90;99.90
7216;DHT22;3649;48.798;9.798;2023-12-20T04:12:32;8.80;99.90
7216;DHT22;3649;48.798;9.798;2023-12-20T04:15:00;8.80;99.90
7216;DHT22;3649;48.798;9.798;2023-12-20T04:17:26;8.80;99.90
7216;DHT22;3649;48.798;9.798;2023-12-20T04:19:53;8.80;99.90
7216;DHT22;3649;48.798;9.798;2023-12-20T04:22:20;8.70;99.90
7216;DHT22;3649;48.798;9.798;2023-12-20T04:24:47;8.70;99.90
7216;DHT22;3649;48.798;9.798;2023-12-20T04:27:14;8.80;99.90
7216;DHT22;3649;48.798;9.798;2023-12-20T04:29:41;8.70;99.90
7216;DHT22;3649;48.798;9.798;2023-12-20T04:32:08;8.70;99.90
7216;DHT22;3649;48.798;9.798;2023-12-20T04:34:35;8.70;99.90
7216;DHT22;3649;48.798;9.798;2023-12-20T04:37:02;8.70;99.90
7216;DHT22;3649;48.798;9.798;2023-12-20T04:39:29;8.80;99.90
7216;DHT22;3649;48.798;9.798;2023-12-20T04:41:56;8.80;99.90
7216;DHT22;3649;48.798;9.798;2023-12-20T04:44:23;8.80;99.90
7216;DHT22;3649;48.798;9.798;2023-12-20T04:46:50;9.40;99.90
7216;DHT22;3649;48.798;9.798;2023-12-20T04:49:16;8.80;99.90
7216;DHT22;3649;48.798;9.798;2023-12-20T04:51:43;8.70;99.90
7216;DHT22;3649;48.798;9.798;2023-12-20T04:54:10;8.70;99.90
7216;DHT22;3649;48.798;9.798;2023-12-20T04:56:37;8.70;99.90
7216;DHT22;3649;48.798;9.798;2023-12-20T04:59:04;8.80;99.90
7216;DHT22;3649;48.798;9.798;2023-12-20T05:01:31;8.80;99.90
7216;DHT22;3649;48.798;9.798;2023-12-20T05:03:57;8.70;99.90
7216;DHT22;3649;48.798;9.798;2023-12-20T05:06:24;8.70;99.90
7216;DHT22;3649;48.798;9.798;2023-12-20T05:08:51;8.70;99.90
7216;DHT22;3649;48.798;9.798;2023-12-20T05:11:18;8.70;99.90
7216;DHT22;3649;48.798;9.798;2023-12-20T05:13:44;8.80;99.90
7216;DHT22;3649;48.798;9.798;2023-12-20T05:16:16;8.70;99.90
7216;DHT22;3649;48.798;9.798;2023-12-20T05:18:47;8.70;99.90
7216;DHT22;3649;48.798;9.798;2023-12-20T05:21:14;8.60;99.90
7216;DHT22;3649;48.798;9.798;2023-12-20T05:23:41;8.60;99.90
7216;DHT22;3649;48.798;9.798;2023-12-20T05:26:07;8.70;99.90
7216;DHT22;3649;48.798;9.798;2023-12-20T05:28:34;8.70;99.90
7216;DHT22;3649;48.798;9.798;2023-12-20T05:31:03;8.80;99.90
7216;DHT22;3649;48.798;9.798;2023-12-20T05:33:30;8.60;99.90
7216;DHT22;3649;48.798;9.798;2023-12-20T05:35:57;8.70;99.90
7216;DHT22;3649;48.798;9.798;2023-12-20T05:38:24;8.70;99.90
7216;DHT22;3649;48.798;9.798;2023-12-20T05:40:53;8.70;99.90
7216;DHT22;3649;48.798;9.798;2023-12-20T05:43:21;8.60;99.90
7216;DHT22;3649;48.798;9.798;2023-12-20T05:45:47;8.60;99.90
7216;DHT22;3649;48.798;9.798;2023-12-20T05:48:14;8.60;99.90
7216;DHT22;3649;48.798;9.798;2023-12-20T05:50:41;8.70;99.90
7216;DHT22;3649;48.798;9.798;2023-12-20T05:53:08;8.70;99.90
7216;DHT22;3649;48.798;9.798;2023-12-20T05:55:35;8.70;99.90
7216;DHT22;3649;48.798;9.798;2023-12-20T05:58:02;8.80;99.90
7216;DHT22;3649;48.798;9.798;2023-12-20T06:00:29;8.70;99.90
7216;DHT22;3649;48.798;9.798;2023-12-20T06:02:56;8.70;99.90
7216;DHT22;3649;48.798;9.798;2023-12-20T06:05:23;8.70;99.90
7216;DHT22;3649;48.798;9.798;2023-12-20T06:07:49;8.70;99.90
7216;DHT22;3649;48.798;9.798;2023-12-20T06:10:17;8.60;99.90
7216;DHT22;3649;48.798;9.798;2023-12-20T06:12:44;8.70;99.90
7216;DHT22;3649;48.798;9.798;2023-12-20T06:15:14;8.70;99.90
7216;DHT22;3649;48.798;9.798;2023-12-20T06:17:40;8.70;99.90
7216;DHT22;3649;48.798;9.798;2023-12-20T06:20:08;8.70;99.90
7216;DHT22;3649;48.798;9.798;2023-12-20T06:22:35;8.70;99.90
7216;DHT22;3649;48.798;9.798;2023-12-20T06:25:04;8.70;99.90
7216;DHT22;3649;48.798;9.798;2023-12-20T06:27:31;8.70;99.90
7216;DHT22;3649;48.798;9.798;2023-12-20T06:29:59;8.60;99.90
7216;DHT22;3649;48.798;9.798;2023-12-20T06:32:26;8.70;99.90
7216;DHT22;3649;48.798;9.798;2023-12-20T06:34:53;8.70;99.90
7216;DHT22;3649;48.798;9.798;2023-12-20T06:37:20;8.70;99.90
7216;DHT22;3649;48.798;9.798;2023-12-20T06:39:46;8.70;99.90
7216;DHT22;3649;48.798;9.798;2023-12-20T06:42:13;8.70;99.90
7216;DHT22;3649;48.798;9.798;2023-12-20T06:44:40;8.70;99.90
7216;DHT22;3649;48.798;9.798;2023-12-20T06:47:08;8.80;99.90
7216;DHT22;3649;48.798;9.798;2023-12-20T06:49:34;8.80;99.90
7216;DHT22;3649;48.798;9.798;2023-12-20T06:52:01;8.70;99.90
7216;DHT22;3649;48.798;9.798;2023-12-20T06:54:29;8.70;99.90
7216;DHT22;3649;48.798;9.798;2023-12-20T06:56:55;8.70;99.90
7216;DHT22;3649;48.798;9.798;2023-12-20T06:59:22;8.70;99.90
7216;DHT22;3649;48.798;9.798;2023-12-20T07:01:49;8.70;99.90
7216;DHT22;3649;48.798;9.798;2023-12-20T07:04:17;8.70;99.90
7216;DHT22;3649;48.798;9.798;2023-12-20T07:06:48;8.70;99.90
7216;DHT22;3649;48.798;9.798;2023-12-20T07:09:18;8.70;99.90
7216;DHT22;3649;48.798;9.798;2023-12-20T07:11:45;8.70;99.90
7216;DHT22;3649;48.798;9.798;2023-12-20T07:14:12;8.80;99.90
7216;DHT22;3649;48.798;9.798;2023-12-20T07:16:39;8.80;99.90
7216;DHT22;3649;48.798;9.798;2023-12-20T07:19:06;8.80;99.90
7216;DHT22;3649;48.798;9.798;2023-12-20T07:21:34;8.80;99.90
7216;DHT22;3649;48.798;9.798;2023-12-20T07:24:01;8.70;99.90
7216;DHT22;3649;48.798;9.798;2023-12-20T07:26:28;8.70;99.90
7216;DHT22;3649;48.798;9.798;2023-12-20T07:28:55;8.80;99.90
7216;DHT22;3649;48.798;9.798;2023-12-20T07:31:21;8.70;99.90
7216;DHT22;3649;48.798;9.798;2023-12-20T07:33:51;8.70;99.90
7216;DHT22;3649;48.798;9.798;2023-12-20T07:36:19;8.80;99.90
7216;DHT22;3649;48.798;9.798;2023-12-20T07:38:46;8.80;99.90
7216;DHT22;3649;48.798;9.798;2023-12-20T07:41:13;8.70;99.90
7216;DHT22;3649;48.798;9.798;2023-12-20T07:43:40;8.70;99.90
7216;DHT22;3649;48.798;9.798;2023-12-20T07:46:10;8.70;99.90
7216;DHT22;3649;48.798;9.798;2023-12-20T07:48:37;8.70;99.90
7216;DHT22;3649;48.798;9.798;2023-12-20T07:51:04;8.70;99.90
7216;DHT22;3649;48.798;9.798;2023-12-20T07:53:33;8.70;99.90
7216;DHT22;3649;48.798;9.798;2023-12-20T07:56:00;8.80;99.90
7216;DHT22;3649;48.798;9.798;2023-12-20T07:58:27;8.80;99.90
7216;DHT22;3649;48.798;9.798;2023-12-20T08:01:16;8.70;99.90
7216;DHT22;3649;48.798;9.798;2023-12-20T08:03:43;8.70;99.90
7216;DHT22;3649;48.798;9.798;2023-12-20T08:06:09;8.80;99.90
7216;DHT22;3649;48.798;9.798;2023-12-20T08:08:36;8.80;99.90
7216;DHT22;3649;48.798;9.798;2023-12-20T08:11:03;8.90;99.90
7216;DHT22;3649;48.798;9.798;2023-12-20T08:13:30;8.90;99.90
7216;DHT22;3649;48.798;9.798;2023-12-20T08:15:57;8.90;99.90
7216;DHT22;3649;48.798;9.798;2023-12-20T08:18:24;8.90;99.90
7216;DHT22;3649;48.798;9.798;2023-12-20T08:20:51;8.90;99.90
7216;DHT22;3649;48.798;9.798;2023-12-20T08:23:20;8.90;99.90
7216;DHT22;3649;48.798;9.798;2023-12-20T08:25:50;8.90;99.90
7216;DHT22;3649;48.798;9.798;2023-12-20T08:28:17;8.80;99.90
7216;DHT22;3649;48.798;9.798;2023-12-20T08:30:44;8.80;99.90
7216;DHT22;3649;48.798;9.798;2023-12-20T08:33:11;8.90;99.90
7216;DHT22;3649;48.798;9.798;2023-12-20T08:35:40;8.90;99.90
7216;DHT22;3649;48.798;9.798;2023-12-20T08:38:07;8.90;99.90
7216;DHT22;3649;48.798;9.798;2023-12-20T08:40:34;8.90;99.90
7216;DHT22;3649;48.798;9.798;2023-12-20T08:43:01;8.90;99.90
7216;DHT22;3649;48.798;9.798;2023-12-20T08:45:28;8.80;99.90
7216;DHT22;3649;48.798;9.798;2023-12-20T08:47:54;8.90;99.90
7216;DHT22;3649;48.798;9.798;2023-12-20T08:50:24;8.80;99.90
7216;DHT22;3649;48.798;9.798;2023-12-20T08:52:51;8.90;99.90
7216;DHT22;3649;48.798;9.798;2023-12-20T08:55:19;8.90;99.90
7216;DHT22;3649;48.798;9.798;2023-12-20T08:57:46;8.90;99.90
7216;DHT22;3649;48.798;9.798;2023-12-20T09:00:14;8.90;99.90
7216;DHT22;3649;48.798;9.798;2023-12-20T09:02:41;8.90;99.90
7216;DHT22;3649;48.798;9.798;2023-12-20T09:05:08;9.00;99.90
7216;DHT22;3649;48.798;9.798;2023-12-20T09:07:35;9.10;99.90
7216;DHT22;3649;48.798;9.798;2023-12-20T09:10:02;9.00;99.90
7216;DHT22;3649;48.798;9.798;2023-12-20T09:12:29;9.00;99.90
7216;DHT22;3649;48.798;9.798;2023-12-20T09:14:56;9.00;99.90
7216;DHT22;3649;48.798;9.798;2023-12-20T09:17:23;9.00;99.90
7216;DHT22;3649;48.798;9.798;2023-12-20T09:19:50;9.10;99.90
7216;DHT22;3649;48.798;9.798;2023-12-20T09:22:19;9.00;99.90
7216;DHT22;3649;48.798;9.798;2023-12-20T09:24:46;9.00;99.90
7216;DHT22;3649;48.798;9.798;2023-12-20T09:27:13;9.00;99.90
7216;DHT22;3649;48.798;9.798;2023-12-20T09:29:40;9.00;99.90
7216;DHT22;3649;48.798;9.798;2023-12-20T09:32:07;9.00;99.90
7216;DHT22;3649;48.798;9.798;2023-12-20T09:34:34;8.90;99.90
7216;DHT22;3649;48.798;9.798;2023-12-20T09:37:01;8.90;99.90
7216;DHT22;3649;48.798;9.798;2023-12-20T09:39:29;8.90;99.90
7216;DHT22;3649;48.798;9.798;2023-12-20T09:42:03;9.00;99.90
7216;DHT22;3649;48.798;9.798;2023-12-20T09:44:31;9.00;99.90
7216;DHT22;3649;48.798;9.798;2023-12-20T09:47:02;9.00;99.90
7216;DHT22;3649;48.798;9.798;2023-12-20T09:49:29;9.10;99.90
7216;DHT22;3649;48.798;9.798;2023-12-20T09:51:57;9.10;99.90
7216;DHT22;3649;48.798;9.798;2023-12-20T09:54:25;9.10;99.90
7216;DHT22;3649;48.798;9.798;2023-12-20T09:56:53;9.20;99.90
7216;DHT22;3649;48.798;9.798;2023-12-20T09:59:20;9.20;99.90
7216;DHT22;3649;48.798;9.798;2023-12-20T10:01:48;9.30;99.90
7216;DHT22;3649;48.798;9.798;2023-12-20T10:04:15;9.30;99.90
7216;DHT22;3649;48.798;9.798;2023-12-20T10:06:55;9.30;99.90
7216;DHT22;3649;48.798;9.798;2023-12-20T10:09:24;9.20;99.90
7216;DHT22;3649;48.798;9.798;2023-12-20T10:11:54;9.30;99.90
7216;DHT22;3649;48.798;9.798;2023-12-20T10:14:22;9.70;99.90
7216;DHT22;3649;48.798;9.798;2023-12-20T10:16:50;9.30;99.90
7216;DHT22;3649;48.798;9.798;2023-12-20T10:19:17;9.30;99.90
7216;DHT22;3649;48.798;9.798;2023-12-20T10:21:47;9.30;99.90
7216;DHT22;3649;48.798;9.798;2023-12-20T10:24:17;9.30;99.90
7216;DHT22;3649;48.798;9.798;2023-12-20T10:26:44;9.30;99.90
7216;DHT22;3649;48.798;9.798;2023-12-20T10:29:11;9.30;99.90
7216;DHT22;3649;48.798;9.798;2023-12-20T10:31:38;9.40;99.90
7216;DHT22;3649;48.798;9.798;2023-12-20T10:34:05;9.40;99.90
7216;DHT22;3649;48.798;9.798;2023-12-20T10:36:33;9.40;99.90
7216;DHT22;3649;48.798;9.798;2023-12-20T10:39:00;9.40;99.90
7216;DHT22;3649;48.798;9.798;2023-12-20T10:41:32;9.40;99.90
7216;DHT22;3649;48.798;9.798;2023-12-20T10:44:03;9.40;99.90
7216;DHT22;3649;48.798;9.798;2023-12-20T10:46:31;9.40;99.90
7216;DHT22;3649;48.798;9.798;2023-12-20T10:49:02;9.30;99.90
7216;DHT22;3649;48.798;9.798;2023-12-20T10:51:30;9.40;99.90
7216;DHT22;3649;48.798;9.798;2023-12-20T10:53:57;9.40;99.90
7216;DHT22;3649;48.798;9.798;2023-12-20T10:56:25;9.40;99.90
7216;DHT22;3649;48.798;9.798;2023-12-20T10:58:54;9.40;99.90
7216;DHT22;3649;48.798;9.798;2023-12-20T11:01:23;9.50;99.90
7216;DHT22;3649;48.798;9.798;2023-12-20T11:03:51;9.40;99.90
7216;DHT22;3649;48.798;9.798;2023-12-20T11:12:03;9.50;99.90
7216;DHT22;3649;48.798;9.798;2023-12-20T11:14:40;9.50;99.90
7216;DHT22;3649;48.798;9.798;2023-12-20T11:17:11;9.50;99.90
7216;DHT22;3649;48.798;9.798;2023-12-20T11:20:04;9.60;99.90
7216;DHT22;3649;48.798;9.798;2023-12-20T11:22:32;9.50;99.90
7216;DHT22;3649;48.798;9.798;2023-12-20T11:25:10;9.60;99.90
7216;DHT22;3649;48.798;9.798;2023-12-20T11:27:42;9.60;99.90
7216;DHT22;3649;48.798;9.798;2023-12-20T11:30:16;9.60;99.90
7216;DHT22;3649;48.798;9.798;2023-12-20T11:32:45;9.60;99.90
7216;DHT22;3649;48.798;9.798;2023-12-20T11:37:40;9.60;99.90
7216;DHT22;3649;48.798;9.798;2023-12-20T11:40:15;9.60;99.90
7216;DHT22;3649;48.798;9.798;2023-12-20T11:42:49;9.50;99.90
7216;DHT22;3649;48.798;9.798;2023-12-20T11:45:18;9.50;99.90
7216;DHT22;3649;48.798;9.798;2023-12-20T11:47:49;9.40;99.90
7216;DHT22;3649;48.798;9.798;2023-12-20T11:50:23;9.40;99.90
7216;DHT22;3649;48.798;9.798;2023-12-20T11:52:51;9.40;99.90
7216;DHT22;3649;48.798;9.798;2023-12-20T11:55:19;9.40;99.90
7216;DHT22;3649;48.798;9.798;2023-12-20T11:57:46;9.40;99.90
7216;DHT22;3649;48.798;9.798;2023-12-20T12:00:14;9.30;99.90
7216;DHT22;3649;48.798;9.798;2023-12-20T12:02:42;9.40;99.90
7216;DHT22;3649;48.798;9.798;2023-12-20T12:05:12;9.40;99.90
7216;DHT22;3649;48.798;9.798;2023-12-20T12:07:39;9.40;99.90
7216;DHT22;3649;48.798;9.798;2023-12-20T12:10:06;9.30;99.90
7216;DHT22;3649;48.798;9.798;2023-12-20T12:12:34;9.30;99.90
7216;DHT22;3649;48.798;9.798;2023-12-20T12:15:04;9.40;99.90
7216;DHT22;3649;48.798;9.798;2023-12-20T12:17:31;9.30;99.90
7216;DHT22;3649;48.798;9.798;2023-12-20T12:20:03;9.30;99.90
7216;DHT22;3649;48.798;9.798;2023-12-20T12:22:31;9.40;99.90
7216;DHT22;3649;48.798;9.798;2023-12-20T12:25:09;9.30;99.90
7216;DHT22;3649;48.798;9.798;2023-12-20T12:27:37;9.40;99.90
7216;DHT22;3649;48.798;9.798;2023-12-20T12:30:05;10.50;99.90
7216;DHT22;3649;48.798;9.798;2023-12-20T12:32:34;9.40;99.90
7216;DHT22;3649;48.798;9.798;2023-12-20T12:35:05;9.40;99.90
7216;DHT22;3649;48.798;9.798;2023-12-20T12:37:38;9.30;99.90
7216;DHT22;3649;48.798;9.798;2023-12-20T12:40:09;9.30;99.90
7216;DHT22;3649;48.798;9.798;2023-12-20T12:42:37;9.30;99.90
7216;DHT22;3649;48.798;9.798;2023-12-20T12:45:05;9.30;99.90
7216;DHT22;3649;48.798;9.798;2023-12-20T12:47:32;9.20;99.90
7216;DHT22;3649;48.798;9.798;2023-12-20T12:49:59;10.30;99.90
7216;DHT22;3649;48.798;9.798;2023-12-20T12:52:26;9.20;99.90
7216;DHT22;3649;48.798;9.798;2023-12-20T12:54:53;9.20;99.90
7216;DHT22;3649;48.798;9.798;2023-12-20T12:57:20;9.20;99.90
7216;DHT22;3649;48.798;9.798;2023-12-20T12:59:47;9.20;99.90
7216;DHT22;3649;48.798;9.798;2023-12-20T13:02:14;9.20;99.90
7216;DHT22;3649;48.798;9.798;2023-12-20T13:04:42;9.20;99.90
7216;DHT22;3649;48.798;9.798;2023-12-20T13:07:10;9.20;99.90
7216;DHT22;3649;48.798;9.798;2023-12-20T13:09:40;9.30;99.90
7216;DHT22;3649;48.798;9.798;2023-12-20T13:12:07;9.30;99.90
7216;DHT22;3649;48.798;9.798;2023-12-20T13:14:35;9.30;99.90
7216;DHT22;3649;48.798;9.798;2023-12-20T13:17:04;9.40;99.90
7216;DHT22;3649;48.798;9.798;2023-12-20T13:19:31;9.40;99.90
7216;DHT22;3649;48.798;9.798;2023-12-20T13:21:58;9.30;99.90
7216;DHT22;3649;48.798;9.798;2023-12-20T13:24:25;9.30;99.90
7216;DHT22;3649;48.798;9.798;2023-12-20T13:26:52;9.40;99.90
7216;DHT22;3649;48.798;9.798;2023-12-20T13:29:19;9.40;99.90
7216;DHT22;3649;48.798;9.798;2023-12-20T13:31:46;9.40;99.90
7216;DHT22;3649;48.798;9.798;2023-12-20T13:34:12;9.50;99.90
7216;DHT22;3649;48.798;9.798;2023-12-20T13:36:40;9.40;99.90
7216;DHT22;3649;48.798;9.798;2023-12-20T13:39:06;9.40;99.90
7216;DHT22;3649;48.798;9.798;2023-12-20T13:41:34;9.40;99.90
7216;DHT22;3649;48.798;9.798;2023-12-20T13:44:01;9.80;99.90
7216;DHT22;3649;48.798;9.798;2023-12-20T13:46:30;9.30;99.90
7216;DHT22;3649;48.798;9.798;2023-12-20T13:48:57;9.30;99.90
7216;DHT22;3649;48.798;9.798;2023-12-20T13:51:24;9.30;99.90
7216;DHT22;3649;48.798;9.798;2023-12-20T13:53:51;9.30;99.90
7216;DHT22;3649;48.798;9.798;2023-12-20T13:56:17;9.30;99.90
7216;DHT22;3649;48.798;9.798;2023-12-20T13:58:46;9.30;99.90
7216;DHT22;3649;48.798;9.798;2023-12-20T14:01:13;9.30;99.90
7216;DHT22;3649;48.798;9.798;2023-12-20T14:03:40;9.30;99.90
7216;DHT22;3649;48.798;9.798;2023-12-20T14:06:08;9.20;99.90
7216;DHT22;3649;48.798;9.798;2023-12-20T14:08:35;9.20;99.90
7216;DHT22;3649;48.798;9.798;2023-12-20T14:11:02;9.20;99.90
7216;DHT22;3649;48.798;9.798;2023-12-20T14:13:29;9.20;99.90
7216;DHT22;3649;48.798;9.798;2023-12-20T14:15:58;9.30;99.90
7216;DHT22;3649;48.798;9.798;2023-12-20T14:18:27;9.30;99.90
7216;DHT22;3649;48.798;9.798;2023-12-20T14:20:54;9.30;99.90
7216;DHT22;3649;48.798;9.798;2023-12-20T14:23:21;9.30;99.90
7216;DHT22;3649;48.798;9.798;2023-12-20T14:25:49;9.20;99.90
7216;DHT22;3649;48.798;9.798;2023-12-20T14:28:19;9.20;99.90
7216;DHT22;3649;48.798;9.798;2023-12-20T14:30:46;9.20;99.90
7216;DHT22;3649;48.798;9.798;2023-12-20T14:33:13;9.20;99.90
7216;DHT22;3649;48.798;9.798;2023-12-20T14:35:40;9.40;99.90
7216;DHT22;3649;48.798;9.798;2023-12-20T14:38:11;9.30;99.90
7216;DHT22;3649;48.798;9.798;2023-12-20T14:40:41;9.30;99.90
7216;DHT22;3649;48.798;9.798;2023-12-20T14:43:08;9.40;99.90
7216;DHT22;3649;48.798;9.798;2023-12-20T14:45:35;9.30;99.90
7216;DHT22;3649;48.798;9.798;2023-12-20T14:48:02;9.30;99.90
7216;DHT22;3649;48.798;9.798;2023-12-20T14:50:29;9.30;99.90
7216;DHT22;3649;48.798;9.798;2023-12-20T14:52:56;9.20;99.90
7216;DHT22;3649;48.798;9.798;2023-12-20T14:55:23;9.20;99.90
7216;DHT22;3649;48.798;9.798;2023-12-20T14:57:50;8.40;99.90
7216;DHT22;3649;48.798;9.798;2023-12-20T15:00:17;9.30;99.90
7216;DHT22;3649;48.798;9.798;2023-12-20T15:02:46;9.30;99.90
7216;DHT22;3649;48.798;9.798;2023-12-20T15:05:13;9.30;99.90
7216;DHT22;3649;48.798;9.798;2023-12-20T15:07:41;9.30;99.90
7216;DHT22;3649;48.798;9.798;2023-12-20T15:10:08;9.30;99.90
7216;DHT22;3649;48.798;9.798;2023-12-20T15:12:35;9.30;99.90
7216;DHT22;3649;48.798;9.798;2023-12-20T15:15:02;9.30;99.90
7216;DHT22;3649;48.798;9.798;2023-12-20T15:17:29;9.30;99.90
7216;DHT22;3649;48.798;9.798;2023-12-20T15:19:56;9.40;99.90
7216;DHT22;3649;48.798;9.798;2023-12-20T15:22:23;9.40;99.90
7216;DHT22;3649;48.798;9.798;2023-12-20T15:24:52;9.30;99.90
7216;DHT22;3649;48.798;9.798;2023-12-20T15:27:21;9.30;99.90
7216;DHT22;3649;48.798;9.798;2023-12-20T15:29:51;9.30;99.90
7216;DHT22;3649;48.798;9.798;2023-12-20T15:32:18;9.10;99.90
7216;DHT22;3649;48.798;9.798;2023-12-20T15:34:49;9.10;99.90
7216;DHT22;3649;48.798;9.798;2023-12-20T15:37:16;9.10;99.90
7216;DHT22;3649;48.798;9.798;2023-12-20T15:39:43;9.00;99.90
7216;DHT22;3649;48.798;9.798;2023-12-20T15:42:09;9.00;99.90
7216;DHT22;3649;48.798;9.798;2023-12-20T15:44:36;9.00;99.90
7216;DHT22;3649;48.798;9.798;2023-12-20T15:47:03;8.90;99.90
7216;DHT22;3649;48.798;9.798;2023-12-20T15:49:30;8.80;99.90
7216;DHT22;3649;48.798;9.798;2023-12-20T15:51:57;8.90;99.90
7216;DHT22;3649;48.798;9.798;2023-12-20T15:54:24;8.80;99.90
7216;DHT22;3649;48.798;9.798;2023-12-20T15:56:51;8.80;99.90
7216;DHT22;3649;48.798;9.798;2023-12-20T15:59:18;8.80;99.90
7216;DHT22;3649;48.798;9.798;2023-12-20T16:01:45;8.70;99.90
7216;DHT22;3649;48.798;9.798;2023-12-20T16:04:20;8.60;99.90
7216;DHT22;3649;48.798;9.798;2023-12-20T16:06:47;8.60;99.90
7216;DHT22;3649;48.798;9.798;2023-12-20T16:09:14;8.60;99.90
7216;DHT22;3649;48.798;9.798;2023-12-20T16:11:42;8.70;99.90
7216;DHT22;3649;48.798;9.798;2023-12-20T16:14:10;8.70;99.90
7216;DHT22;3649;48.798;9.798;2023-12-20T16:16:42;8.70;99.90
7216;DHT22;3649;48.798;9.798;2023-12-20T16:19:09;8.80;99.90
7216;DHT22;3649;48.798;9.798;2023-12-20T16:21:36;8.70;99.90
7216;DHT22;3649;48.798;9.798;2023-12-20T16:24:03;8.90;99.90
7216;DHT22;3649;48.798;9.798;2023-12-20T16:26:30;8.70;99.90
7216;DHT22;3649;48.798;9.798;2023-12-20T16:28:57;8.70;99.90